createdAt,value
2023-06-30T00:04:09.917Z,45.30
2023-06-30T00:09:13.723Z,45.30
2023-06-30T00:14:17.485Z,45.50
2023-06-30T00:19:24.521Z,45.60
2023-06-30T00:24:28.268Z,45.60
2023-06-30T00:29:31.700Z,45.50
2023-06-30T00:34:37.192Z,45.50
2023-06-30T00:39:40.906Z,45.70
2023-06-30T00:44:45.393Z,45.90
2023-06-30T00:49:50.692Z,46.10
2023-06-30T00:54:54.172Z,46.10
2023-06-30T00:59:57.786Z,46.40
2023-06-30T01:05:09.062Z,46.40
2023-06-30T01:10:17.082Z,46.30
2023-06-30T01:15:21.584Z,46.00
2023-06-30T01:20:31.740Z,45.90
2023-06-30T01:25:36.200Z,45.80
2023-06-30T01:30:41.093Z,46.90
2023-06-30T01:35:46.495Z,45.90
2023-06-30T01:40:51.152Z,46.40
2023-06-30T01:45:56.012Z,46.40
2023-06-30T01:51:02.058Z,46.50
2023-06-30T01:56:05.777Z,46.40
2023-06-30T02:01:09.290Z,46.30
2023-06-30T02:06:15.706Z,46.40
2023-06-30T02:11:19.281Z,46.50
2023-06-30T02:16:22.785Z,46.50
2023-06-30T02:21:27.966Z,46.60
2023-06-30T02:26:31.967Z,46.70
2023-06-30T02:31:35.808Z,46.60
2023-06-30T02:36:49.746Z,46.70
2023-06-30T02:41:55.859Z,46.70
2023-06-30T02:46:59.321Z,46.90
2023-06-30T02:52:04.289Z,46.90
2023-06-30T02:57:07.773Z,46.70
2023-06-30T03:02:11.469Z,46.80
2023-06-30T03:07:17.872Z,47.00
2023-06-30T03:12:21.559Z,47.00
2023-06-30T03:17:25.549Z,47.00
2023-06-30T03:22:30.501Z,46.70
2023-06-30T03:27:34.976Z,47.50
2023-06-30T03:32:38.474Z,46.80
2023-06-30T03:37:44.877Z,47.10
2023-06-30T03:42:48.565Z,46.80
2023-06-30T03:47:52.030Z,47.00
2023-06-30T03:52:56.892Z,47.20
2023-06-30T03:58:00.331Z,48.80
2023-06-30T04:03:04.040Z,47.70
2023-06-30T04:08:09.280Z,47.50
2023-06-30T04:13:12.857Z,47.20
2023-06-30T04:18:16.732Z,47.20
2023-06-30T04:23:22.204Z,47.10
2023-06-30T04:28:25.866Z,47.60
2023-06-30T04:33:29.316Z,47.50
2023-06-30T04:38:34.189Z,47.90
2023-06-30T04:43:37.681Z,47.90
2023-06-30T04:48:41.166Z,47.90
2023-06-30T04:53:46.039Z,47.60
2023-06-30T04:58:51.273Z,48.00
2023-06-30T05:03:55.891Z,48.00
2023-06-30T05:09:01.045Z,48.10
2023-06-30T05:14:04.902Z,48.30
2023-06-30T05:19:09.330Z,47.90
2023-06-30T05:24:14.201Z,47.90
2023-06-30T05:29:17.811Z,48.40
2023-06-30T05:34:21.751Z,48.40
2023-06-30T05:39:26.562Z,48.30
2023-06-30T05:44:30.361Z,47.80
2023-06-30T05:49:33.861Z,47.70
2023-06-30T05:54:38.688Z,48.50
2023-06-30T05:59:42.149Z,48.80
2023-06-30T06:04:45.663Z,49.00
2023-06-30T06:09:50.731Z,49.00
2023-06-30T06:14:54.517Z,49.10
2023-06-30T06:19:59.300Z,48.80
2023-06-30T06:25:04.588Z,48.40
2023-06-30T06:30:09.801Z,48.30
2023-06-30T06:35:13.665Z,48.10
2023-06-30T06:40:18.473Z,47.90
2023-06-30T06:45:21.986Z,47.90
2023-06-30T06:50:25.432Z,47.80
2023-06-30T06:55:30.426Z,47.60
2023-06-30T07:00:33.936Z,47.80
2023-06-30T07:05:37.449Z,48.30
2023-06-30T07:10:42.993Z,48.80
2023-06-30T07:15:48.889Z,48.90
2023-06-30T07:20:54.758Z,48.90
2023-06-30T07:25:59.599Z,48.70
2023-06-30T07:31:03.259Z,48.70
2023-06-30T07:36:08.578Z,49.00
2023-06-30T07:41:13.918Z,49.00
2023-06-30T07:46:17.561Z,49.00
2023-06-30T07:51:21.185Z,48.90
2023-06-30T07:56:26.156Z,48.80
2023-06-30T08:01:29.639Z,48.70
2023-06-30T08:06:33.135Z,48.90
2023-06-30T08:11:38.379Z,48.70
2023-06-30T08:16:42.075Z,48.80
2023-06-30T08:21:46.724Z,48.70
2023-06-30T08:26:52.649Z,48.80
2023-06-30T08:31:56.273Z,48.60
2023-06-30T08:36:59.767Z,48.40
2023-06-30T08:42:07.776Z,48.50
2023-06-30T08:47:12.999Z,48.40
2023-06-30T08:52:17.236Z,48.40
2023-06-30T08:57:23.729Z,48.80
2023-06-30T09:02:32.810Z,48.80
2023-06-30T09:07:44.218Z,48.70
2023-06-30T09:12:52.351Z,48.80
2023-06-30T09:17:57.031Z,48.80
2023-06-30T09:23:04.784Z,48.80
2023-06-30T09:28:16.425Z,49.30
2023-06-30T09:33:21.750Z,48.80
2023-06-30T09:38:29.476Z,48.90
2023-06-30T09:43:38.343Z,49.00
2023-06-30T09:48:44.424Z,49.10
2023-06-30T09:53:48.303Z,49.10
2023-06-30T09:58:58.026Z,49.20
2023-06-30T10:04:01.752Z,49.10
2023-06-30T10:09:05.843Z,49.10
2023-06-30T10:14:56.609Z,49.10
2023-06-30T10:20:12.161Z,49.00
2023-06-30T10:25:21.821Z,48.90
2023-06-30T10:30:26.018Z,49.00
2023-06-30T10:35:32.702Z,49.20
2023-06-30T10:40:36.951Z,49.30
2023-06-30T10:46:12.765Z,49.40
2023-06-30T10:51:19.519Z,49.50
2023-06-30T10:56:24.998Z,49.70
2023-06-30T11:01:29.577Z,50.80
2023-06-30T11:06:37.714Z,50.20
2023-06-30T11:11:59.512Z,50.60
2023-06-30T11:17:05.775Z,50.70
2023-06-30T11:22:28.155Z,50.90
2023-06-30T11:27:32.978Z,50.90
2023-06-30T11:32:38.674Z,50.90
2023-06-30T11:37:49.674Z,50.90
2023-06-30T11:42:54.204Z,50.80
2023-06-30T11:47:58.613Z,50.70
2023-06-30T11:53:04.363Z,50.60
2023-06-30T11:58:09.981Z,50.20
2023-06-30T12:03:18.146Z,49.60
2023-06-30T12:08:25.256Z,49.70
2023-06-30T12:13:30.445Z,49.50
2023-06-30T12:18:38.215Z,49.50
2023-06-30T12:23:47.546Z,49.20
2023-06-30T12:28:52.431Z,49.80
2023-06-30T12:33:56.108Z,50.30
2023-06-30T12:39:01.291Z,50.70
2023-06-30T12:44:05.799Z,51.20
2023-06-30T12:49:09.682Z,51.50
2023-06-30T12:54:14.623Z,52.70
2023-06-30T12:59:19.049Z,55.30
2023-06-30T13:04:23.067Z,55.50
2023-06-30T13:09:28.489Z,55.00
2023-06-30T13:14:32.608Z,54.70
2023-06-30T13:19:36.091Z,54.80
2023-06-30T13:24:41.224Z,54.50
2023-06-30T13:29:48.659Z,54.30
2023-06-30T13:34:53.604Z,54.30
2023-06-30T13:39:58.411Z,54.40
2023-06-30T13:45:01.942Z,54.10
2023-06-30T13:50:06.037Z,53.40
2023-06-30T13:55:11.328Z,52.80
2023-06-30T14:00:15.953Z,51.90
2023-06-30T14:05:19.600Z,51.40
2023-06-30T14:10:24.521Z,51.20
2023-06-30T14:15:29.982Z,51.20
2023-06-30T14:20:33.581Z,51.40
2023-06-30T14:25:38.702Z,51.40
2023-06-30T14:30:42.375Z,51.70
2023-06-30T14:35:46.129Z,51.80
2023-06-30T14:40:51.186Z,51.90
2023-06-30T14:45:54.702Z,51.90
2023-06-30T14:50:58.152Z,51.70
2023-06-30T14:56:03.393Z,51.50
2023-06-30T15:01:06.985Z,51.50
2023-06-30T15:06:10.647Z,51.70
2023-06-30T15:11:15.740Z,52.00
2023-06-30T15:16:19.590Z,52.30
2023-06-30T15:21:23.192Z,52.40
2023-06-30T15:26:28.115Z,52.60
2023-06-30T15:31:32.351Z,52.50
2023-06-30T15:36:35.866Z,52.80
2023-06-30T15:41:40.688Z,53.30
2023-06-30T15:46:44.305Z,54.20
2023-06-30T15:51:48.080Z,55.20
2023-06-30T15:56:53.608Z,55.80
2023-06-30T16:01:57.794Z,56.10
2023-06-30T16:07:01.977Z,56.20
2023-06-30T16:12:09.509Z,56.20
2023-06-30T16:17:13.002Z,56.30
2023-06-30T16:22:16.944Z,56.90
2023-06-30T16:27:22.015Z,58.30
2023-06-30T16:32:27.299Z,57.80
2023-06-30T16:37:34.827Z,58.00
2023-06-30T16:42:44.441Z,58.40
2023-06-30T16:47:50.227Z,59.20
2023-06-30T16:52:54.032Z,59.90
2023-06-30T16:58:03.406Z,60.00
2023-06-30T17:03:07.417Z,60.10
2023-06-30T17:08:11.693Z,60.80
2023-06-30T17:13:17.302Z,60.60
2023-06-30T17:18:22.261Z,60.40
2023-06-30T17:23:27.869Z,60.20
2023-06-30T17:28:33.027Z,60.40
2023-06-30T17:33:37.059Z,60.70
2023-06-30T17:38:40.517Z,61.00
2023-06-30T17:43:45.374Z,61.20
2023-06-30T17:48:57.600Z,61.50
2023-06-30T17:54:01.303Z,61.80
2023-06-30T17:59:06.084Z,61.90
2023-06-30T18:04:09.856Z,61.90
2023-06-30T18:09:13.334Z,62.20
2023-06-30T18:14:18.582Z,62.40
2023-06-30T18:19:23.322Z,62.80
2023-06-30T18:24:26.885Z,63.20
2023-06-30T18:29:32.038Z,63.20
2023-06-30T18:34:36.314Z,63.10
2023-06-30T18:39:40.046Z,63.30
2023-06-30T18:44:45.004Z,63.70
2023-06-30T18:49:48.486Z,63.80
2023-06-30T18:54:52.991Z,64.20
2023-06-30T18:59:57.800Z,64.30
2023-06-30T19:05:01.399Z,64.60
2023-06-30T19:10:05.283Z,64.60
2023-06-30T19:15:11.356Z,64.60
2023-06-30T19:20:14.891Z,64.40
2023-06-30T19:25:20.100Z,64.30
2023-06-30T19:30:26.053Z,64.10
2023-06-30T19:35:29.977Z,63.90
2023-06-30T19:40:33.967Z,64.00
2023-06-30T19:45:55.626Z,64.20
2023-06-30T20:03:01.303Z,65.20
2023-06-30T20:08:05.428Z,65.00
2023-06-30T20:13:09.024Z,65.00
2023-06-30T20:18:14.851Z,65.00
2023-06-30T20:23:20.743Z,65.10
2023-06-30T20:28:24.230Z,66.30
2023-06-30T20:33:29.127Z,65.40
2023-06-30T20:38:32.698Z,65.60
2023-06-30T20:43:36.199Z,65.80
2023-06-30T20:48:41.051Z,65.90
2023-06-30T20:53:44.491Z,65.70
2023-06-30T20:58:48.644Z,65.80
2023-06-30T21:03:54.213Z,65.70
2023-06-30T21:08:57.746Z,65.70
